Time;durP1;ratioP1;P1;durP2;ratioP2;P2;SDS_P1;SDS_P2;PMS_P1;PMS_P2;Temp;Humidity;BMP_temperature;BMP_pressure;BME280_temperature;BME280_humidity;BME280_pressure;Samples;Min_cycle;Max_cycle;Signal;HPM_P1;HPM_P2
2023/05/30 00:00:43;;;;;;;3.07;2.20;;;;;;;;;;4985264;28;20037;-75
2023/05/30 00:03:08;;;;;;;3.07;2.40;;;;;;;;;;4988927;28;20030;-73
2023/05/30 00:05:34;;;;;;;3.63;2.23;;;;;;;;;;4996930;28;20285;-71
2023/05/30 00:07:59;;;;;;;4.28;2.47;;;;;;;;;;4997101;28;20038;-74
2023/05/30 00:10:24;;;;;;;5.80;2.33;;;;;;;;;;4995363;28;20037;-74
2023/05/30 00:12:50;;;;;;;3.70;2.13;;;;;;;;;;4986985;28;20281;-76
2023/05/30 00:15:16;;;;;;;3.65;2.22;;;;;;;;;;4995813;28;20048;-76
2023/05/30 00:17:41;;;;;;;4.68;2.35;;;;;;;;;;4984732;28;20077;-64
2023/05/30 00:20:08;;;;;;;4.15;2.28;;;;;;;;;;4994510;28;20054;-71
2023/05/30 00:22:34;;;;;;;3.67;2.33;;;;;;;;;;4980140;28;20034;-69
2023/05/30 00:24:59;;;;;;;2.60;2.00;;;;;;;;;;5000640;28;20038;-66
2023/05/30 00:27:25;;;;;;;3.88;2.60;;;;;;;;;;4991613;28;20118;-72
2023/05/30 00:29:50;;;;;;;4.05;2.42;;;;;;;;;;4976042;28;20036;-76
2023/05/30 00:32:15;;;;;;;3.60;2.08;;;;;;;;;;4989735;28;20045;-69
2023/05/30 00:34:40;;;;;;;3.60;2.20;;;;;;;;;;4992928;28;20050;-73
2023/05/30 00:37:06;;;;;;;3.83;2.23;;;;;;;;;;4983956;28;21227;-71
2023/05/30 00:39:31;;;;;;;4.05;2.08;;;;;;;;;;4983679;28;20067;-66
2023/05/30 00:41:57;;;;;;;3.60;2.17;;;;;;;;;;4996427;28;20556;-71
2023/05/30 00:44:22;;;;;;;3.40;2.20;;;;;;;;;;4996346;28;20042;-72
2023/05/30 00:46:47;;;;;;;3.03;2.20;;;;;;;;;;4983998;28;20045;-68
2023/05/30 00:49:13;;;;;;;3.00;2.10;;;;;;;;;;4992670;28;20128;-70
2023/05/30 00:51:38;;;;;;;3.47;2.13;;;;;;;;;;4991587;28;20475;-69
2023/05/30 00:54:03;;;;;;;2.57;2.07;;;;;;;;;;4989305;28;20038;-69
2023/05/30 00:56:30;;;;;;;3.67;2.28;;;;;;;;;;4987315;28;20285;-72
2023/05/30 00:58:55;;;;;;;3.65;2.30;;;;;;;;;;4990049;28;20064;-77
2023/05/30 01:01:20;;;;;;;4.07;2.43;;;;;;;;;;4986396;28;20123;-68
2023/05/30 01:03:48;;;;;;;3.10;2.10;;;;;;;;;;5002381;28;20071;-73
2023/05/30 01:06:13;;;;;;;3.75;2.05;;;;;;;;;;4985556;28;20096;-69
2023/05/30 01:08:39;;;;;;;2.80;1.90;;;;;;;;;;4984358;28;20054;-76
2023/05/30 01:11:23;;;;;;;2.67;1.80;;;;;;;;;;4990701;28;20038;-67
2023/05/30 01:13:52;;;;;;;3.53;2.10;;;;;;;;;;4992450;28;20731;-71
2023/05/30 01:16:18;;;;;;;;;;;;;;;;;;4999727;28;20050;-69
2023/05/30 01:18:51;;;;;;;2.63;2.10;;;;;;;;;;4984275;28;19917;-70
2023/05/30 01:21:16;;;;;;;2.67;2.00;;;;;;;;;;4999075;28;20397;-76
2023/05/30 01:23:43;;;;;;;2.65;2.20;;;;;;;;;;4995098;28;20108;-72
2023/05/30 01:26:28;;;;;;;3.22;2.00;;;;;;;;;;4986851;28;20050;-70
2023/05/30 01:28:55;;;;;;;2.88;1.85;;;;;;;;;;4993470;28;20046;-70
2023/05/30 01:31:21;;;;;;;2.58;1.90;;;;;;;;;;4985779;28;20088;-75
2023/05/30 01:33:46;;;;;;;3.63;2.10;;;;;;;;;;4988068;28;20464;-68
2023/05/30 01:36:11;;;;;;;3.30;2.20;;;;;;;;;;4973719;28;20054;-68
2023/05/30 01:38:37;;;;;;;3.50;2.07;;;;;;;;;;4989694;28;20485;-71
2023/05/30 01:41:04;;;;;;;2.63;1.98;;;;;;;;;;4985661;28;20488;-74
2023/05/30 01:43:29;;;;;;;3.47;1.98;;;;;;;;;;4984973;28;20038;-75
2023/05/30 01:46:09;;;;;;;3.03;1.88;;;;;;;;;;4986565;28;20200;-74
2023/05/30 01:48:38;;;;;;;2.53;1.90;;;;;;;;;;4983039;28;20520;-76
2023/05/30 01:51:03;;;;;;;2.83;1.90;;;;;;;;;;4985830;28;20014;-63
2023/05/30 01:53:30;;;;;;;4.32;1.95;;;;;;;;;;4998922;28;20018;-73
2023/05/30 01:55:56;;;;;;;2.78;2.10;;;;;;;;;;4979585;28;20452;-75
2023/05/30 01:58:21;;;;;;;3.03;1.90;;;;;;;;;;4987025;28;20064;-70
2023/05/30 02:00:47;;;;;;;2.45;1.85;;;;;;;;;;4987820;28;20026;-71
2023/05/30 02:03:12;;;;;;;3.28;2.00;;;;;;;;;;5000663;28;20828;-72
2023/05/30 02:05:37;;;;;;;3.00;2.00;;;;;;;;;;4997978;28;20046;-68
2023/05/30 02:08:03;;;;;;;2.20;1.60;;;;;;;;;;4987884;28;20679;-71
2023/05/30 02:10:28;;;;;;;2.35;1.92;;;;;;;;;;4993698;28;20280;-74
2023/05/30 02:12:53;;;;;;;3.50;1.67;;;;;;;;;;4990596;28;20536;-66
2023/05/30 02:15:18;;;;;;;3.87;2.03;;;;;;;;;;5007622;28;20024;-71
2023/05/30 02:17:43;;;;;;;3.10;1.80;;;;;;;;;;4992043;28;20454;-70
2023/05/30 02:20:09;;;;;;;4.93;2.10;;;;;;;;;;4989735;28;20061;-74
2023/05/30 02:22:34;;;;;;;3.03;2.13;;;;;;;;;;5004215;28;20269;-72
2023/05/30 02:25:00;;;;;;;3.13;1.75;;;;;;;;;;4987358;28;20026;-71
2023/05/30 02:27:25;;;;;;;3.10;1.90;;;;;;;;;;4982685;28;20029;-70
2023/05/30 02:29:50;;;;;;;2.95;1.88;;;;;;;;;;4987213;28;20041;-76
2023/05/30 02:32:16;;;;;;;2.57;1.80;;;;;;;;;;4987860;28;20065;-73
2023/05/30 02:34:41;;;;;;;3.40;1.70;;;;;;;;;;4986806;28;20054;-71
2023/05/30 02:37:06;;;;;;;2.58;1.75;;;;;;;;;;4982220;28;20068;-76
2023/05/30 02:39:32;;;;;;;2.88;1.83;;;;;;;;;;4998401;28;20033;-69
2023/05/30 02:41:57;;;;;;;2.90;1.60;;;;;;;;;;4986578;28;20026;-73
2023/05/30 02:44:23;;;;;;;2.22;1.50;;;;;;;;;;5006245;28;20033;-74
2023/05/30 02:46:48;;;;;;;3.87;1.70;;;;;;;;;;4992569;28;20030;-71
2023/05/30 02:49:13;;;;;;;2.80;1.80;;;;;;;;;;4986779;28;20477;-65
2023/05/30 02:51:40;;;;;;;2.72;1.95;;;;;;;;;;4986590;28;20026;-74
2023/05/30 02:54:05;;;;;;;2.67;1.88;;;;;;;;;;4996827;28;20023;-74
2023/05/30 02:56:31;;;;;;;2.90;1.80;;;;;;;;;;4999516;28;20057;-73
2023/05/30 02:58:58;;;;;;;3.60;2.00;;;;;;;;;;4986687;28;20010;-67
2023/05/30 03:01:23;;;;;;;2.78;1.70;;;;;;;;;;4986567;28;20019;-70
2023/05/30 03:03:48;;;;;;;3.13;1.70;;;;;;;;;;4992043;28;20042;-72
2023/05/30 03:06:14;;;;;;;2.57;1.70;;;;;;;;;;4986569;28;20034;-72
2023/05/30 03:08:41;;;;;;;2.85;1.70;;;;;;;;;;4986595;28;20044;-68
2023/05/30 03:11:06;;;;;;;2.28;1.67;;;;;;;;;;4991840;28;20070;-74
2023/05/30 03:13:31;;;;;;;2.63;1.73;;;;;;;;;;4993936;28;20510;-73
2023/05/30 03:15:57;;;;;;;2.40;1.63;;;;;;;;;;4991859;28;20501;-68
2023/05/30 03:18:22;;;;;;;2.57;1.97;;;;;;;;;;4986650;28;20650;-72
2023/05/30 03:20:47;;;;;;;2.33;1.67;;;;;;;;;;4986293;28;20730;-65
2023/05/30 03:23:12;;;;;;;2.30;1.90;;;;;;;;;;4987475;28;20471;-71
2023/05/30 03:25:38;;;;;;;3.13;1.80;;;;;;;;;;4986272;28;20475;-73
2023/05/30 03:28:06;;;;;;;3.10;1.90;;;;;;;;;;4986612;28;20376;-75
2023/05/30 03:30:31;;;;;;;3.17;1.88;;;;;;;;;;4986308;28;20052;-76
2023/05/30 03:32:57;;;;;;;3.53;1.90;;;;;;;;;;4992402;28;20129;-64
2023/05/30 03:35:22;;;;;;;2.70;1.77;;;;;;;;;;4992517;28;20039;-72
2023/05/30 03:37:47;;;;;;;2.37;1.70;;;;;;;;;;4999118;28;21210;-67
2023/05/30 03:40:12;;;;;;;2.57;1.77;;;;;;;;;;4994883;28;21094;-65
2023/05/30 03:42:38;;;;;;;2.90;1.83;;;;;;;;;;5005590;28;20296;-70
2023/05/30 03:45:03;;;;;;;3.30;1.80;;;;;;;;;;5005587;28;20489;-71
2023/05/30 03:47:28;;;;;;;3.15;1.80;;;;;;;;;;5014641;28;20056;-67
2023/05/30 03:49:53;;;;;;;2.47;1.60;;;;;;;;;;5005396;28;20033;-69
2023/05/30 03:52:19;;;;;;;2.67;1.87;;;;;;;;;;5005241;28;20077;-70
2023/05/30 03:54:44;;;;;;;3.23;1.70;;;;;;;;;;4987865;28;20079;-70
2023/05/30 03:57:09;;;;;;;2.78;1.92;;;;;;;;;;5005311;28;20428;-71
2023/05/30 03:59:35;;;;;;;2.93;1.60;;;;;;;;;;5005226;28;20030;-71
2023/05/30 04:02:00;;;;;;;4.13;2.00;;;;;;;;;;5005542;28;20268;-71
2023/05/30 04:04:26;;;;;;;2.57;1.40;;;;;;;;;;5004965;28;20038;-72
2023/05/30 04:06:51;;;;;;;2.20;1.60;;;;;;;;;;5005512;28;20622;-70
2023/05/30 04:09:17;;;;;;;3.67;2.00;;;;;;;;;;5004780;28;20057;-67
2023/05/30 04:11:42;;;;;;;3.20;1.75;;;;;;;;;;5005555;28;20033;-70
2023/05/30 04:14:07;;;;;;;3.27;1.77;;;;;;;;;;4986849;28;20125;-68
2023/05/30 04:16:32;;;;;;;3.03;1.90;;;;;;;;;;5004173;28;20131;-69
2023/05/30 04:18:58;;;;;;;2.63;1.50;;;;;;;;;;5004879;28;20124;-65
2023/05/30 04:21:23;;;;;;;3.72;1.60;;;;;;;;;;5004379;28;20064;-65
2023/05/30 04:23:48;;;;;;;2.67;1.80;;;;;;;;;;5004936;28;20151;-71
2023/05/30 04:26:14;;;;;;;2.40;1.50;;;;;;;;;;5004589;28;20042;-69
2023/05/30 04:28:39;;;;;;;4.00;1.70;;;;;;;;;;5006364;28;20029;-68
2023/05/30 04:31:08;;;;;;;2.88;1.83;;;;;;;;;;4988378;28;20042;-71
2023/05/30 04:33:35;;;;;;;2.75;1.67;;;;;;;;;;5004149;28;20044;-68
2023/05/30 04:36:05;;;;;;;4.03;2.03;;;;;;;;;;5004846;28;20049;-70
2023/05/30 04:38:32;;;;;;;4.22;1.85;;;;;;;;;;5000361;28;20041;-68
2023/05/30 04:41:00;;;;;;;3.22;2.10;;;;;;;;;;5003080;28;20060;-73
2023/05/30 04:43:26;;;;;;;3.60;2.05;;;;;;;;;;4979215;28;20503;-73
2023/05/30 04:45:51;;;;;;;3.67;2.00;;;;;;;;;;4994851;28;20113;-77
2023/05/30 04:48:16;;;;;;;3.00;2.20;;;;;;;;;;4994042;28;20137;-70
2023/05/30 04:50:46;;;;;;;4.25;2.00;;;;;;;;;;4977565;28;20705;-76
2023/05/30 04:53:11;;;;;;;4.45;1.80;;;;;;;;;;4977364;28;20080;-73
2023/05/30 04:55:36;;;;;;;3.40;1.97;;;;;;;;;;4998963;28;21240;-77
2023/05/30 04:58:03;;;;;;;3.40;2.00;;;;;;;;;;5004973;28;20424;-68
2023/05/30 05:00:28;;;;;;;4.30;2.17;;;;;;;;;;4999370;28;20165;-67
2023/05/30 05:02:54;;;;;;;2.73;1.60;;;;;;;;;;4999521;28;20493;-70
2023/05/30 05:05:19;;;;;;;3.20;1.73;;;;;;;;;;5004097;28;20494;-72
2023/05/30 05:07:45;;;;;;;4.15;1.90;;;;;;;;;;5005741;28;20075;-74
2023/05/30 05:10:10;;;;;;;3.22;1.77;;;;;;;;;;5005763;28;20022;-75
2023/05/30 05:12:35;;;;;;;3.40;2.10;;;;;;;;;;5008501;28;20046;-80
2023/05/30 05:15:00;;;;;;;3.47;2.10;;;;;;;;;;5005978;28;20363;-87
2023/05/30 05:17:26;;;;;;;3.03;2.07;;;;;;;;;;4993636;28;20651;-71
2023/05/30 05:19:51;;;;;;;4.50;2.10;;;;;;;;;;4995699;28;20507;-76
2023/05/30 05:22:16;;;;;;;2.58;1.80;;;;;;;;;;5008928;28;20040;-70
2023/05/30 05:24:41;;;;;;;2.90;1.90;;;;;;;;;;4987790;28;20523;-73
2023/05/30 05:27:07;;;;;;;4.70;1.90;;;;;;;;;;5000857;28;20298;-71
2023/05/30 05:29:32;;;;;;;3.42;2.00;;;;;;;;;;4975827;28;20061;-72
2023/05/30 05:31:57;;;;;;;2.72;1.80;;;;;;;;;;4971798;28;20624;-69
2023/05/30 05:34:23;;;;;;;4.82;2.33;;;;;;;;;;4974849;28;20048;-71
2023/05/30 05:36:48;;;;;;;3.37;1.90;;;;;;;;;;4984234;28;20122;-74
2023/05/30 05:39:13;;;;;;;5.17;2.30;;;;;;;;;;5006152;28;20775;-70
2023/05/30 05:41:39;;;;;;;3.40;1.80;;;;;;;;;;4992005;28;20484;-76
2023/05/30 05:44:04;;;;;;;5.30;2.07;;;;;;;;;;5011743;28;20109;-79
2023/05/30 05:46:29;;;;;;;2.83;1.63;;;;;;;;;;4989780;28;20832;-80
2023/05/30 05:48:55;;;;;;;2.72;1.98;;;;;;;;;;5009929;28;20106;-73
2023/05/30 05:51:20;;;;;;;3.10;1.80;;;;;;;;;;5014276;28;20037;-77
2023/05/30 05:53:45;;;;;;;5.10;1.90;;;;;;;;;;5012188;28;20117;-73
2023/05/30 05:56:11;;;;;;;3.40;2.03;;;;;;;;;;5011622;28;20472;-74
2023/05/30 05:58:36;;;;;;;3.17;1.90;;;;;;;;;;4993415;28;20174;-77
2023/05/30 06:01:02;;;;;;;3.00;2.00;;;;;;;;;;5010694;28;20057;-65
2023/05/30 06:03:27;;;;;;;4.22;2.03;;;;;;;;;;5002741;28;20096;-74
2023/05/30 06:05:52;;;;;;;3.85;2.03;;;;;;;;;;5003720;28;20050;-76
2023/05/30 06:08:18;;;;;;;3.80;2.20;;;;;;;;;;4996235;28;20050;-77
2023/05/30 06:10:43;;;;;;;3.77;2.03;;;;;;;;;;4986158;28;20320;-80
2023/05/30 06:13:08;;;;;;;3.67;1.87;;;;;;;;;;4985368;28;20037;-77
2023/05/30 06:15:33;;;;;;;3.13;2.10;;;;;;;;;;5008582;28;20112;-71
2023/05/30 06:17:59;;;;;;;3.53;1.70;;;;;;;;;;5005581;28;20038;-76
2023/05/30 06:20:24;;;;;;;2.70;2.20;;;;;;;;;;5009694;28;20130;-77
2023/05/30 06:22:49;;;;;;;4.43;2.20;;;;;;;;;;5004891;28;20044;-76
2023/05/30 06:25:14;;;;;;;2.47;1.80;;;;;;;;;;5000497;28;20476;-69
2023/05/30 06:27:40;;;;;;;3.05;2.00;;;;;;;;;;5010382;28;20352;-75
2023/05/30 06:30:05;;;;;;;3.05;2.17;;;;;;;;;;5013012;28;20583;-76
2023/05/30 06:32:31;;;;;;;2.90;2.00;;;;;;;;;;4972478;28;20048;-72
2023/05/30 06:34:56;;;;;;;3.83;1.90;;;;;;;;;;5002254;28;20088;-76
2023/05/30 06:37:21;;;;;;;3.97;2.30;;;;;;;;;;5010824;28;20316;-80
2023/05/30 06:39:46;;;;;;;3.67;2.23;;;;;;;;;;5014718;28;20078;-73
2023/05/30 06:42:12;;;;;;;5.00;2.27;;;;;;;;;;5005710;28;20039;-68
2023/05/30 06:44:37;;;;;;;2.80;1.93;;;;;;;;;;5013158;28;20292;-74
2023/05/30 06:47:02;;;;;;;4.13;1.95;;;;;;;;;;5013057;28;20346;-78
2023/05/30 06:49:28;;;;;;;3.95;2.25;;;;;;;;;;5012633;28;20045;-76
2023/05/30 06:51:53;;;;;;;3.97;2.38;;;;;;;;;;5014559;28;20048;-67
2023/05/30 06:54:19;;;;;;;4.90;2.90;;;;;;;;;;5007881;28;20053;-72
2023/05/30 06:56:44;;;;;;;5.13;2.60;;;;;;;;;;5009799;28;20046;-78
2023/05/30 06:59:09;;;;;;;4.05;2.58;;;;;;;;;;5003333;28;20052;-78
2023/05/30 07:01:35;;;;;;;5.05;2.50;;;;;;;;;;4984228;28;20033;-72
2023/05/30 07:04:00;;;;;;;3.93;2.60;;;;;;;;;;5009492;28;20034;-77
2023/05/30 07:06:25;;;;;;;3.67;2.20;;;;;;;;;;5008698;28;20293;-81
2023/05/30 07:08:50;;;;;;;5.67;2.93;;;;;;;;;;4999457;28;20293;-72
2023/05/30 07:11:16;;;;;;;3.77;2.77;;;;;;;;;;5008456;28;20339;-71
2023/05/30 07:13:41;;;;;;;3.77;2.87;;;;;;;;;;5009975;28;21183;-72
2023/05/30 07:16:06;;;;;;;4.60;3.00;;;;;;;;;;5010626;28;20289;-71
2023/05/30 07:18:31;;;;;;;5.50;2.97;;;;;;;;;;5007571;28;20129;-81
2023/05/30 07:20:57;;;;;;;5.18;3.00;;;;;;;;;;5007751;28;20346;-69
2023/05/30 07:23:22;;;;;;;5.27;2.90;;;;;;;;;;5010789;28;20030;-67
2023/05/30 07:25:47;;;;;;;4.23;3.03;;;;;;;;;;5011220;28;20117;-75
2023/05/30 07:28:12;;;;;;;4.60;3.10;;;;;;;;;;5011084;28;20070;-75
2023/05/30 07:30:38;;;;;;;4.60;3.20;;;;;;;;;;5000342;28;20034;-72
2023/05/30 07:33:03;;;;;;;4.00;2.97;;;;;;;;;;4996891;28;20295;-78
2023/05/30 07:35:28;;;;;;;6.33;3.37;;;;;;;;;;5011690;28;20812;-79
2023/05/30 07:37:53;;;;;;;5.67;3.50;;;;;;;;;;4987186;28;20493;-78
2023/05/30 07:40:18;;;;;;;5.97;3.50;;;;;;;;;;5006768;28;20029;-75
2023/05/30 07:42:44;;;;;;;4.50;3.40;;;;;;;;;;4998740;28;20458;-78
2023/05/30 07:45:09;;;;;;;5.35;3.38;;;;;;;;;;5002957;28;20300;-79
2023/05/30 07:47:35;;;;;;;5.85;3.50;;;;;;;;;;5003529;28;20045;-75
2023/05/30 07:50:00;;;;;;;6.63;3.45;;;;;;;;;;5006259;28;20029;-78
2023/05/30 07:52:25;;;;;;;6.97;2.93;;;;;;;;;;5008144;28;20113;-73
2023/05/30 07:54:51;;;;;;;3.80;2.60;;;;;;;;;;5007004;28;20666;-78
2023/05/30 07:57:16;;;;;;;7.53;2.80;;;;;;;;;;4976097;28;20552;-79
2023/05/30 07:59:42;;;;;;;4.75;3.13;;;;;;;;;;5007595;28;20420;-75
2023/05/30 08:02:07;;;;;;;6.78;2.97;;;;;;;;;;4984888;28;20092;-77
2023/05/30 08:04:32;;;;;;;4.80;2.90;;;;;;;;;;5005496;28;20042;-72
2023/05/30 08:06:58;;;;;;;5.57;3.20;;;;;;;;;;4983714;28;20121;-64
2023/05/30 08:09:23;;;;;;;4.72;2.97;;;;;;;;;;5000912;28;20084;-67
2023/05/30 08:11:48;;;;;;;6.13;3.70;;;;;;;;;;4975000;28;20046;-68
2023/05/30 08:14:13;;;;;;;5.00;3.30;;;;;;;;;;4998664;28;20034;-68
2023/05/30 08:16:39;;;;;;;4.70;2.73;;;;;;;;;;4994534;28;20300;-66
2023/05/30 08:19:04;;;;;;;5.32;2.53;;;;;;;;;;4997150;28;20767;-69
2023/05/30 08:21:31;;;;;;;6.32;3.35;;;;;;;;;;4987771;28;20030;-69
2023/05/30 08:23:56;;;;;;;4.05;2.85;;;;;;;;;;5005140;28;20022;-68
2023/05/30 08:26:24;;;;;;;4.17;2.80;;;;;;;;;;5005509;28;20480;-67
2023/05/30 08:28:49;;;;;;;4.20;2.78;;;;;;;;;;5005588;28;20300;-68
2023/05/30 08:31:15;;;;;;;5.03;3.00;;;;;;;;;;4993926;28;20570;-67
2023/05/30 08:33:40;;;;;;;5.68;2.70;;;;;;;;;;5005366;28;20030;-68
2023/05/30 08:36:06;;;;;;;3.28;2.53;;;;;;;;;;4987556;28;20030;-70
2023/05/30 08:38:31;;;;;;;5.60;3.00;;;;;;;;;;5004448;28;20516;-68
2023/05/30 08:40:56;;;;;;;4.77;2.80;;;;;;;;;;5002292;28;20285;-66
2023/05/30 08:43:21;;;;;;;4.67;2.80;;;;;;;;;;4986002;28;20304;-70
2023/05/30 08:45:47;;;;;;;4.30;2.87;;;;;;;;;;4983777;28;20361;-68
2023/05/30 08:48:12;;;;;;;4.47;2.93;;;;;;;;;;4982340;28;20123;-65
2023/05/30 08:50:37;;;;;;;5.07;3.13;;;;;;;;;;4985461;28;20273;-66
2023/05/30 08:53:06;;;;;;;4.00;2.63;;;;;;;;;;5002486;28;20445;-68
2023/05/30 08:55:33;;;;;;;3.47;2.60;;;;;;;;;;5002449;28;20033;-67
2023/05/30 08:58:08;;;;;;;4.68;2.45;;;;;;;;;;4985259;28;20040;-66
2023/05/30 09:00:33;;;;;;;4.90;2.83;;;;;;;;;;5001990;28;20961;-70
2023/05/30 09:02:58;;;;;;;3.50;2.63;;;;;;;;;;5001105;28;20136;-66
2023/05/30 09:05:24;;;;;;;4.20;2.65;;;;;;;;;;5002819;28;20643;-65
2023/05/30 09:07:49;;;;;;;5.07;2.60;;;;;;;;;;4985322;28;20103;-69
2023/05/30 09:10:14;;;;;;;4.80;2.93;;;;;;;;;;5003448;28;20811;-70
2023/05/30 09:12:40;;;;;;;4.47;2.60;;;;;;;;;;4969202;28;20276;-70
2023/05/30 09:15:06;;;;;;;4.05;2.60;;;;;;;;;;5003837;28;20042;-68
2023/05/30 09:17:32;;;;;;;4.60;2.58;;;;;;;;;;5001405;28;20108;-68
2023/05/30 09:19:57;;;;;;;5.22;2.45;;;;;;;;;;4985964;28;20392;-69
2023/05/30 09:22:22;;;;;;;4.18;2.55;;;;;;;;;;5002505;28;20030;-70
2023/05/30 09:25:03;;;;;;;4.00;2.50;;;;;;;;;;5001708;28;20049;-67
2023/05/30 09:27:30;;;;;;;5.03;2.33;;;;;;;;;;5000803;28;20037;-68
2023/05/30 09:29:55;;;;;;;3.83;2.60;;;;;;;;;;5001537;28;20515;-68
2023/05/30 09:32:25;;;;;;;2.75;2.35;;;;;;;;;;5000972;28;20033;-67
2023/05/30 09:34:55;;;;;;;3.33;2.20;;;;;;;;;;4985513;28;20080;-67
2023/05/30 09:37:21;;;;;;;5.30;2.22;;;;;;;;;;5002122;28;20536;-66
2023/05/30 09:40:02;;;;;;;3.70;2.40;;;;;;;;;;4985152;28;20482;-69
2023/05/30 09:42:34;;;;;;;4.05;2.13;;;;;;;;;;4982153;28;20034;-68
2023/05/30 09:45:03;;;;;;;4.05;2.25;;;;;;;;;;4983628;28;20042;-72
2023/05/30 09:47:28;;;;;;;5.13;2.60;;;;;;;;;;4982975;28;20033;-69
2023/05/30 09:49:53;;;;;;;3.33;2.40;;;;;;;;;;5001662;28;20647;-66
2023/05/30 09:52:18;;;;;;;3.40;2.17;;;;;;;;;;4985161;28;20388;-67
2023/05/30 09:54:44;;;;;;;3.23;2.50;;;;;;;;;;4983748;28;20546;-69
2023/05/30 09:57:09;;;;;;;3.78;2.22;;;;;;;;;;4983608;28;20030;-71
2023/05/30 09:59:35;;;;;;;2.25;1.85;;;;;;;;;;5001102;28;20477;-65
2023/05/30 10:02:00;;;;;;;3.77;2.30;;;;;;;;;;5001486;28;20025;-66
2023/05/30 10:04:25;;;;;;;3.80;2.13;;;;;;;;;;4984428;28;20155;-70
2023/05/30 10:06:51;;;;;;;3.07;2.27;;;;;;;;;;5002010;28;20288;-71
2023/05/30 10:09:18;;;;;;;3.95;2.15;;;;;;;;;;4983208;28;20125;-70
2023/05/30 10:11:43;;;;;;;3.65;2.20;;;;;;;;;;4981654;28;20737;-70
2023/05/30 10:14:09;;;;;;;4.15;2.03;;;;;;;;;;5004962;28;20040;-66
2023/05/30 10:16:35;;;;;;;3.83;2.17;;;;;;;;;;4986327;28;20058;-69
2023/05/30 10:19:02;;;;;;;4.93;2.30;;;;;;;;;;4987876;28;20096;-73
2023/05/30 10:21:27;;;;;;;4.57;2.10;;;;;;;;;;5003666;28;20084;-69
2023/05/30 10:23:53;;;;;;;2.75;1.83;;;;;;;;;;5005417;28;20026;-70
2023/05/30 10:26:18;;;;;;;3.55;2.20;;;;;;;;;;5002390;28;20396;-71
2023/05/30 10:28:44;;;;;;;3.30;1.90;;;;;;;;;;5005093;28;20050;-69
2023/05/30 10:31:09;;;;;;;3.70;2.08;;;;;;;;;;5003881;28;20095;-70
2023/05/30 10:33:35;;;;;;;3.83;2.15;;;;;;;;;;5003084;28;20118;-71
2023/05/30 10:36:01;;;;;;;3.10;1.98;;;;;;;;;;5004929;28;20018;-72
2023/05/30 10:38:26;;;;;;;2.97;2.00;;;;;;;;;;4987095;28;20105;-74
2023/05/30 10:41:06;;;;;;;2.80;2.00;;;;;;;;;;5006906;28;20057;-68
2023/05/30 10:43:49;;;;;;;3.75;2.17;;;;;;;;;;4988109;28;20798;-66
2023/05/30 10:46:15;;;;;;;2.80;2.05;;;;;;;;;;5004577;28;20041;-66
2023/05/30 10:48:43;;;;;;;2.80;2.00;;;;;;;;;;5005241;28;20052;-68
2023/05/30 10:51:10;;;;;;;2.80;1.98;;;;;;;;;;4988724;28;20663;-69
2023/05/30 10:53:39;;;;;;;3.30;1.80;;;;;;;;;;5005044;28;20021;-70
2023/05/30 10:56:05;;;;;;;4.82;2.22;;;;;;;;;;5006884;28;20038;-67
2023/05/30 10:58:50;;;;;;;2.95;2.00;;;;;;;;;;4987889;28;20022;-70
2023/05/30 11:01:25;;;;;;;4.32;2.25;;;;;;;;;;4988733;28;20080;-71
2023/05/30 11:04:23;;;;;;;3.78;1.90;;;;;;;;;;5003283;28;20104;-66
2023/05/30 11:06:49;;;;;;;3.20;1.90;;;;;;;;;;4963277;28;20045;-68
2023/05/30 11:09:15;;;;;;;4.72;2.17;;;;;;;;;;5005144;28;20092;-70
2023/05/30 11:11:43;;;;;;;4.03;2.30;;;;;;;;;;5005407;28;20507;-69
2023/05/30 11:14:10;;;;;;;3.88;1.70;;;;;;;;;;5004531;28;20014;-67
2023/05/30 11:17:12;;;;;;;4.28;1.90;;;;;;;;;;5005138;28;20144;-69
2023/05/30 11:19:38;;;;;;;2.25;1.70;;;;;;;;;;4977146;28;20033;-70
2023/05/30 11:22:04;;;;;;;5.10;1.63;;;;;;;;;;4996644;28;20570;-67
2023/05/30 11:24:29;;;;;;;2.63;1.42;;;;;;;;;;4994406;28;20060;-67
2023/05/30 11:26:55;;;;;;;3.53;1.90;;;;;;;;;;4996787;28;20022;-70
2023/05/30 11:29:57;;;;;;;4.95;1.70;;;;;;;;;;5008092;28;20604;-70
2023/05/30 11:32:23;;;;;;;2.72;1.70;;;;;;;;;;4953585;28;20078;-68
2023/05/30 11:34:58;;;;;;;4.50;1.75;;;;;;;;;;4993531;28;20062;-70
2023/05/30 11:37:23;;;;;;;3.67;1.70;;;;;;;;;;5003940;28;20536;-67
2023/05/30 11:39:48;;;;;;;4.30;1.60;;;;;;;;;;4988246;28;20117;-70
2023/05/30 11:42:13;;;;;;;4.00;1.70;;;;;;;;;;4969703;28;20852;-70
2023/05/30 11:44:39;;;;;;;3.97;1.80;;;;;;;;;;5005402;28;20408;-67
2023/05/30 11:47:06;;;;;;;3.08;1.50;;;;;;;;;;4978444;28;20398;-68
2023/05/30 11:49:31;;;;;;;3.00;1.60;;;;;;;;;;4971361;28;20056;-69
2023/05/30 11:51:57;;;;;;;3.40;1.50;;;;;;;;;;4970199;28;20034;-69
2023/05/30 11:54:22;;;;;;;3.85;1.80;;;;;;;;;;5005501;28;20098;-68
2023/05/30 11:56:47;;;;;;;5.57;1.85;;;;;;;;;;4996792;28;20033;-69
2023/05/30 11:59:30;;;;;;;3.08;1.77;;;;;;;;;;5005461;28;20083;-70
2023/05/30 12:01:57;;;;;;;3.28;1.80;;;;;;;;;;4985096;28;20038;-70
2023/05/30 12:04:29;;;;;;;3.92;1.77;;;;;;;;;;4997616;28;20042;-68
2023/05/30 12:06:58;;;;;;;3.20;1.90;;;;;;;;;;5005799;28;20042;-69
2023/05/30 12:09:23;;;;;;;4.03;1.70;;;;;;;;;;4991618;28;20040;-70
2023/05/30 12:11:56;;;;;;;3.00;1.73;;;;;;;;;;5004719;28;20034;-70
2023/05/30 12:14:41;;;;;;;3.95;1.92;;;;;;;;;;4987249;28;20121;-70
2023/05/30 12:17:14;;;;;;;4.25;2.00;;;;;;;;;;4989311;28;20413;-66
2023/05/30 12:19:42;;;;;;;2.58;1.70;;;;;;;;;;4982217;28;20050;-67
2023/05/30 12:22:08;;;;;;;3.80;2.10;;;;;;;;;;4972523;28;20096;-70
2023/05/30 12:24:33;;;;;;;3.28;1.60;;;;;;;;;;4987722;28;20029;-70
2023/05/30 12:26:59;;;;;;;3.08;1.80;;;;;;;;;;4986359;28;20101;-66
2023/05/30 12:29:27;;;;;;;3.65;1.70;;;;;;;;;;4979905;28;20172;-70
2023/05/30 12:31:53;;;;;;;3.58;1.95;;;;;;;;;;4995777;28;20037;-69
2023/05/30 12:34:19;;;;;;;3.17;1.58;;;;;;;;;;4996852;28;20034;-70
2023/05/30 12:36:45;;;;;;;2.83;1.63;;;;;;;;;;4987357;28;20022;-71
2023/05/30 12:39:10;;;;;;;2.67;1.70;;;;;;;;;;4986148;28;20037;-69
2023/05/30 12:41:39;;;;;;;2.08;1.48;;;;;;;;;;4979331;28;20104;-68
2023/05/30 12:44:04;;;;;;;1.95;1.40;;;;;;;;;;4988652;28;20115;-68
2023/05/30 12:46:31;;;;;;;3.13;1.57;;;;;;;;;;4987660;28;20459;-69
2023/05/30 12:48:56;;;;;;;2.28;1.35;;;;;;;;;;4986288;28;20042;-66
2023/05/30 12:51:21;;;;;;;1.95;1.40;;;;;;;;;;4985649;28;20039;-69
2023/05/30 12:53:52;;;;;;;2.40;1.37;;;;;;;;;;4982681;28;20410;-69
2023/05/30 12:56:18;;;;;;;2.88;1.35;;;;;;;;;;4986345;28;20667;-70
2023/05/30 12:58:43;;;;;;;2.00;1.30;;;;;;;;;;4952986;28;20045;-69
2023/05/30 13:01:08;;;;;;;2.70;1.50;;;;;;;;;;4995661;28;20121;-69
2023/05/30 13:03:33;;;;;;;2.27;1.50;;;;;;;;;;4997617;28;20121;-69
2023/05/30 13:05:58;;;;;;;2.13;1.03;;;;;;;;;;4992498;28;20061;-67
2023/05/30 13:08:24;;;;;;;2.33;1.10;;;;;;;;;;4985653;28;20081;-66
2023/05/30 13:10:49;;;;;;;2.95;1.55;;;;;;;;;;4990937;28;20034;-69
2023/05/30 13:13:16;;;;;;;2.10;1.30;;;;;;;;;;4984780;28;20072;-70
2023/05/30 13:15:41;;;;;;;1.98;1.17;;;;;;;;;;4984379;28;20273;-68
2023/05/30 13:18:06;;;;;;;2.53;1.40;;;;;;;;;;5002388;28;20404;-69
2023/05/30 13:20:31;;;;;;;2.13;1.17;;;;;;;;;;4992258;28;20543;-69
2023/05/30 13:22:57;;;;;;;2.50;1.20;;;;;;;;;;5001433;28;20275;-69
2023/05/30 13:25:22;;;;;;;1.98;1.20;;;;;;;;;;4991748;28;20444;-67
2023/05/30 13:27:50;;;;;;;1.90;1.15;;;;;;;;;;4984361;28;20499;-69
2023/05/30 13:30:15;;;;;;;1.98;1.10;;;;;;;;;;4979435;28;20026;-70
2023/05/30 13:32:40;;;;;;;3.17;1.17;;;;;;;;;;4990393;28;20420;-69
2023/05/30 13:35:06;;;;;;;2.22;1.17;;;;;;;;;;4984895;28;20448;-67
2023/05/30 13:37:31;;;;;;;2.78;1.40;;;;;;;;;;5001035;28;20030;-68
2023/05/30 13:39:57;;;;;;;2.10;1.15;;;;;;;;;;4987579;28;20053;-70
2023/05/30 13:42:22;;;;;;;2.17;1.10;;;;;;;;;;4986886;28;20027;-66
2023/05/30 13:44:47;;;;;;;1.30;1.00;;;;;;;;;;4984700;28;20030;-67
2023/05/30 13:47:12;;;;;;;1.90;1.20;;;;;;;;;;4987690;28;20109;-67
2023/05/30 13:49:38;;;;;;;2.80;1.10;;;;;;;;;;4990058;28;20318;-70
2023/05/30 13:52:05;;;;;;;4.03;1.20;;;;;;;;;;4993242;28;20269;-69
2023/05/30 13:54:30;;;;;;;2.40;1.10;;;;;;;;;;5001056;28;20484;-68
2023/05/30 13:56:55;;;;;;;3.38;1.30;;;;;;;;;;4996524;28;20018;-70
2023/05/30 13:59:21;;;;;;;1.73;1.00;;;;;;;;;;5006351;28;20030;-69
2023/05/30 14:01:46;;;;;;;2.28;1.20;;;;;;;;;;4998395;28;20026;-68
2023/05/30 14:04:11;;;;;;;2.80;1.00;;;;;;;;;;5006013;28;20047;-73
2023/05/30 14:06:37;;;;;;;2.95;0.90;;;;;;;;;;4992561;28;20285;-69
2023/05/30 14:09:04;;;;;;;3.22;1.08;;;;;;;;;;5000453;28;20030;-70
2023/05/30 14:11:30;;;;;;;1.50;0.80;;;;;;;;;;4978084;28;20295;-73
2023/05/30 14:13:55;;;;;;;1.70;0.90;;;;;;;;;;5001190;28;20437;-69
2023/05/30 14:16:20;;;;;;;2.75;1.25;;;;;;;;;;4993981;28;20096;-71
2023/05/30 14:18:46;;;;;;;1.40;0.90;;;;;;;;;;5009566;28;20065;-70
2023/05/30 14:21:11;;;;;;;2.85;1.10;;;;;;;;;;4973756;28;20763;-69
2023/05/30 14:23:37;;;;;;;2.65;0.82;;;;;;;;;;4992811;28;20144;-69
2023/05/30 14:26:03;;;;;;;1.83;1.30;;;;;;;;;;4989880;28;20037;-67
2023/05/30 14:28:28;;;;;;;3.42;1.60;;;;;;;;;;4998107;28;20041;-65
2023/05/30 14:30:53;;;;;;;2.10;1.40;;;;;;;;;;4991120;28;20034;-67
2023/05/30 14:33:19;;;;;;;2.15;1.30;;;;;;;;;;5006433;28;20030;-69
2023/05/30 14:35:44;;;;;;;3.80;1.20;;;;;;;;;;4993459;28;20079;-66
2023/05/30 14:38:09;;;;;;;3.65;1.55;;;;;;;;;;5007555;28;20042;-70